Time;durP1;ratioP1;P1;durP2;ratioP2;P2;SDS_P1;SDS_P2;PMS_P1;PMS_P2;Temp;Humidity;BMP_temperature;BMP_pressure;BME280_temperature;BME280_humidity;BME280_pressure;Samples;Min_cycle;Max_cycle;Signal;HPM_P1;HPM_P2
2021/09/29 00:00:14;;;;;;;2.70;2.50;;;13.80;1.40;;;15.27;100.00;95556.75;650427;216;31750;-72
2021/09/29 00:02:55;;;;;;;2.78;2.58;;;13.80;1.40;;;15.18;100.00;95559.13;620745;222;31882;-71
2021/09/29 00:05:39;;;;;;;2.80;2.50;;;13.70;1.40;;;15.35;100.00;95568.96;648774;212;31544;-72
2021/09/29 00:08:19;;;;;;;2.67;2.03;;;13.70;1.40;;;15.31;100.00;95569.93;647272;216;32217;-71
2021/09/29 00:11:00;;;;;;;2.65;2.35;;;13.70;1.40;;;15.10;100.00;95571.91;648486;212;32129;-71
2021/09/29 00:13:42;;;;;;;1.85;1.70;;;13.60;1.40;;;15.09;100.00;95567.95;645517;216;32175;-72
2021/09/29 00:16:24;;;;;;;2.67;2.47;;;13.60;1.40;;;15.03;100.00;95563.54;646971;212;33007;-72
2021/09/29 00:19:08;;;;;;;2.30;2.10;;;13.60;1.40;;;15.19;100.00;95562.59;646647;212;31538;-71
2021/09/29 00:24:25;;;;;;;3.28;2.67;;;13.70;1.40;;;15.20;100.00;95557.36;645074;216;31777;-71
2021/09/29 00:27:06;;;;;;;2.95;2.30;;;13.70;1.40;;;15.29;100.00;95558.75;620014;226;32211;-71
2021/09/29 00:29:50;;;;;;;2.92;2.67;;;13.70;1.40;;;15.19;100.00;95558.08;645929;212;31528;-72
2021/09/29 00:32:30;;;;;;;3.13;2.30;;;13.70;1.40;;;15.13;100.00;95562.00;650018;212;42362;-71
2021/09/29 00:35:51;;;;;;;2.62;2.37;;;13.70;1.40;;;15.17;100.00;95553.88;645821;216;31593;-72
2021/09/29 00:38:32;;;;;;;2.17;1.98;;;13.70;1.40;;;15.31;100.00;95555.50;651336;216;31525;-72
2021/09/29 00:41:17;;;;;;;2.70;2.50;;;13.70;1.40;;;15.31;100.00;95555.34;643366;212;31754;-72
2021/09/29 00:43:59;;;;;;;2.30;2.10;;;13.70;1.40;;;15.29;100.00;95551.22;647346;212;31912;-72
2021/09/29 00:46:43;;;;;;;2.33;2.12;;;13.70;1.40;;;15.33;100.00;95551.04;646342;213;31542;-72
2021/09/29 00:49:25;;;;;;;2.47;2.28;;;13.70;1.40;;;15.38;100.00;95551.44;651189;216;31555;-72
2021/09/29 00:52:07;;;;;;;3.10;2.80;;;13.70;1.40;;;15.22;100.00;95547.31;646692;216;31545;-73
2021/09/29 00:54:52;;;;;;;3.55;2.72;;;13.70;1.40;;;15.13;100.00;95551.07;647294;212;32143;-72
2021/09/29 00:57:33;;;;;;;3.17;2.37;;;13.60;1.40;;;15.25;100.00;95551.64;648670;216;31951;-72
2021/09/29 01:00:16;;;;;;;3.37;3.08;;;13.60;1.40;;;15.19;100.00;95549.97;645331;212;31591;-72
2021/09/29 01:02:58;;;;;;;2.40;2.20;;;13.70;1.40;;;15.15;100.00;95553.02;648245;212;31564;-72
2021/09/29 01:05:39;;;;;;;2.72;2.22;;;13.70;1.40;;;15.20;100.00;95556.87;646901;212;31528;-73
2021/09/29 01:08:21;;;;;;;7.55;2.62;;;13.60;1.40;;;15.15;100.00;95561.38;645369;212;31720;-72
2021/09/29 01:11:07;;;;;;;3.20;2.90;;;13.60;1.40;;;15.05;100.00;95563.86;619300;222;31865;-72
2021/09/29 01:13:52;;;;;;;3.00;2.70;;;13.60;1.40;;;15.06;100.00;95568.38;645471;216;31531;-71
2021/09/29 01:16:34;;;;;;;2.62;2.42;;;13.60;1.40;;;15.05;100.00;95565.56;648975;212;31611;-72
2021/09/29 01:19:57;;;;;;;3.20;2.90;;;13.60;1.40;;;15.11;100.00;95563.89;641540;215;31622;-72
2021/09/29 01:23:02;;;;;;;2.65;2.45;;;13.60;1.40;;;15.09;100.00;95570.55;646079;216;31517;-72
2021/09/29 01:26:18;;;;;;;3.83;2.75;;;13.60;1.40;;;15.02;100.00;95573.88;649420;212;31613;-71
2021/09/29 01:29:04;;;;;;;3.10;2.80;;;13.60;1.40;;;15.08;100.00;95578.31;645830;216;31562;-71
2021/09/29 01:31:45;;;;;;;3.20;2.90;;;13.60;1.40;;;15.11;100.00;95586.34;646952;216;31563;-71
2021/09/29 01:35:52;;;;;;;3.35;2.58;;;13.60;1.40;;;15.04;100.00;95583.13;620558;222;32309;-72
2021/09/29 01:38:34;;;;;;;2.08;1.87;;;13.60;1.40;;;14.98;100.00;95582.78;648312;216;32132;-71
2021/09/29 01:41:16;;;;;;;2.55;2.35;;;13.50;1.40;;;14.80;100.00;95579.09;641220;216;32209;-72
2021/09/29 01:43:57;;;;;;;2.40;2.00;;;13.50;1.40;;;14.79;100.00;95581.49;644796;212;31566;-72
2021/09/29 01:46:39;;;;;;;2.78;2.58;;;13.50;1.40;;;14.83;100.00;95576.77;618933;222;32045;-71
2021/09/29 01:49:28;;;;;;;2.45;2.25;;;13.50;1.40;;;14.99;100.00;95577.69;649905;216;31593;-71
2021/09/29 01:52:10;;;;;;;3.08;2.78;;;13.50;1.40;;;14.81;100.00;95588.15;645453;212;31789;-71
2021/09/29 01:54:51;;;;;;;3.30;3.00;;;13.40;1.40;;;14.66;100.00;95587.98;646120;212;31556;-72
2021/09/29 01:57:33;;;;;;;2.90;2.70;;;13.40;1.40;;;14.63;100.00;95593.70;647648;212;31503;-72
2021/09/29 02:00:15;;;;;;;3.10;2.80;;;13.40;1.40;;;14.59;100.00;95598.34;648846;212;31593;-72
2021/09/29 02:03:00;;;;;;;3.28;2.97;;;13.40;1.40;;;14.55;100.00;95597.56;648556;212;31648;-71
2021/09/29 02:05:41;;;;;;;4.65;4.20;;;13.40;1.40;;;14.47;100.00;95596.86;647914;212;31742;-71
2021/09/29 02:08:23;;;;;;;3.28;2.95;;;13.40;1.40;;;14.44;100.00;95602.23;650044;216;31547;-72
2021/09/29 02:11:05;;;;;;;3.80;2.90;;;13.30;1.40;;;14.41;100.00;95599.33;647631;212;31534;-71
2021/09/29 02:16:21;;;;;;;3.05;2.45;;;13.40;1.40;;;14.46;100.00;95595.04;646748;212;31535;-72
2021/09/29 02:19:03;;;;;;;3.62;3.05;;;13.30;1.40;;;14.50;100.00;95594.33;620597;226;31891;-71
2021/09/29 02:21:47;;;;;;;3.95;3.62;;;13.40;1.40;;;14.46;100.00;95588.00;648008;212;32569;-72
2021/09/29 02:24:29;;;;;;;2.65;2.45;;;13.30;1.40;;;14.44;100.00;95583.88;645463;212;33087;-71
2021/09/29 02:27:14;;;;;;;3.70;2.80;;;13.20;1.40;;;14.44;100.00;95584.06;649433;212;42244;-72
2021/09/29 02:29:55;;;;;;;3.85;3.55;;;13.20;1.40;;;14.29;100.00;95581.77;645660;212;31520;-71
2021/09/29 02:32:37;;;;;;;3.75;2.53;;;13.10;1.40;;;14.26;100.00;95578.06;646772;212;31698;-71
2021/09/29 02:35:50;;;;;;;2.97;2.75;;;13.00;1.40;;;14.21;100.00;95582.80;647631;212;31600;-72
2021/09/29 02:38:35;;;;;;;2.53;2.33;;;13.00;1.40;;;14.08;100.00;95587.63;645266;216;31632;-72
2021/09/29 02:41:17;;;;;;;3.33;3.08;;;12.90;1.40;;;14.14;100.00;95594.39;642159;212;32221;-72
2021/09/29 02:43:58;;;;;;;2.50;2.30;;;13.00;1.40;;;14.24;100.00;95608.39;645230;212;31614;-71
2021/09/29 02:46:40;;;;;;;1.87;1.77;;;13.10;1.40;;;14.25;100.00;95610.94;645231;212;31617;-71
2021/09/29 02:49:22;;;;;;;2.40;2.20;;;13.10;1.40;;;14.29;100.00;95611.88;648218;216;32070;-71
2021/09/29 02:52:04;;;;;;;3.80;3.40;;;13.20;1.40;;;14.29;100.00;95610.89;647222;212;31508;-71
2021/09/29 02:54:46;;;;;;;2.42;2.22;;;13.20;1.40;;;14.31;100.00;95617.02;646557;216;31567;-70
2021/09/29 02:57:27;;;;;;;3.70;2.50;;;13.30;1.40;;;14.37;100.00;95619.78;645956;213;31592;-71
2021/09/29 03:00:11;;;;;;;2.30;1.50;;;13.30;1.40;;;14.42;100.00;95621.80;647301;216;32139;-72
2021/09/29 03:02:55;;;;;;;3.33;2.37;;;13.40;1.40;;;14.45;100.00;95629.26;644826;214;31560;-72
2021/09/29 03:05:37;;;;;;;3.37;3.12;;;13.50;1.40;;;14.54;100.00;95626.77;644751;212;31537;-71
2021/09/29 03:08:19;;;;;;;3.17;2.55;;;13.50;1.40;;;14.56;100.00;95621.60;646684;212;31522;-71
2021/09/29 03:11:00;;;;;;;3.05;2.85;;;13.50;1.40;;;14.61;100.00;95624.80;644512;212;31671;-72
2021/09/29 03:13:42;;;;;;;3.42;2.62;;;13.50;1.40;;;14.67;100.00;95630.16;646577;216;31530;-71
2021/09/29 03:16:24;;;;;;;2.40;2.20;;;13.60;1.40;;;14.81;100.00;95637.12;645748;212;31539;-72
2021/09/29 03:19:06;;;;;;;4.43;4.03;;;13.60;1.40;;;14.82;100.00;95643.36;647134;212;31543;-72
2021/09/29 03:21:47;;;;;;;3.85;3.22;;;13.60;1.40;;;14.84;100.00;95647.88;646916;216;31539;-71
2021/09/29 03:24:29;;;;;;;4.12;3.12;;;13.70;1.40;;;14.80;100.00;95640.09;646245;216;31554;-72
2021/09/29 03:27:11;;;;;;;2.40;2.20;;;13.70;1.40;;;14.77;100.00;95635.78;645165;216;31684;-71
2021/09/29 03:29:52;;;;;;;4.30;3.47;;;13.60;1.40;;;14.76;100.00;95633.59;621514;226;32113;-73
2021/09/29 03:32:34;;;;;;;2.97;2.72;;;13.60;1.40;;;14.72;100.00;95638.56;645281;216;31607;-72
2021/09/29 03:35:51;;;;;;;3.12;2.75;;;13.60;1.40;;;14.70;100.00;95632.09;645670;212;31606;-72
2021/09/29 03:38:33;;;;;;;3.75;2.87;;;13.60;1.40;;;14.64;100.00;95628.47;619617;225;32051;-72
2021/09/29 03:42:15;;;;;;;4.40;2.78;;;13.60;1.40;;;14.58;100.00;95633.40;636781;216;31738;-72
2021/09/29 03:44:59;;;;;;;3.45;3.08;;;13.60;1.40;;;14.52;100.00;95640.16;647273;216;31718;-71
2021/09/29 03:47:43;;;;;;;3.47;3.17;;;13.60;1.40;;;14.52;100.00;95638.84;648943;216;31558;-71
2021/09/29 03:50:23;;;;;;;2.87;2.58;;;13.50;1.40;;;14.45;100.00;95639.41;650184;216;31419;-72
2021/09/29 03:53:05;;;;;;;3.17;2.58;;;13.50;1.40;;;14.40;100.00;95640.96;648948;212;31577;-72
2021/09/29 03:55:46;;;;;;;2.67;2.47;;;13.40;1.40;;;14.43;100.00;95644.34;648802;212;31593;-72
2021/09/29 03:58:28;;;;;;;2.83;2.62;;;13.40;1.40;;;14.43;100.00;95637.21;648616;212;31538;-71
2021/09/29 04:01:10;;;;;;;2.87;2.28;;;13.40;1.40;;;14.43;100.00;95637.54;647742;212;31531;-73
2021/09/29 04:03:51;;;;;;;2.40;2.20;;;13.50;1.40;;;14.41;100.00;95634.03;644423;212;31553;-72
2021/09/29 04:06:36;;;;;;;3.28;2.97;;;13.40;1.40;;;14.40;100.00;95630.16;617888;222;32608;-71
2021/09/29 04:09:18;;;;;;;2.95;2.65;;;13.40;1.40;;;14.40;100.00;95624.15;647805;216;32048;-71
2021/09/29 04:12:03;;;;;;;2.92;2.50;;;13.40;1.40;;;14.41;100.00;95625.03;631852;220;31817;-71
2021/09/29 04:14:44;;;;;;;2.40;1.65;;;13.40;1.40;;;14.46;100.00;95631.33;650696;212;32174;-71
2021/09/29 04:17:26;;;;;;;1.47;1.37;;;13.40;1.40;;;14.41;100.00;95629.56;645380;212;31597;-71
2021/09/29 04:20:08;;;;;;;2.80;2.20;;;13.40;1.40;;;14.44;100.00;95637.26;648128;216;31640;-72
2021/09/29 04:22:50;;;;;;;2.03;1.92;;;13.40;1.40;;;14.45;100.00;95639.73;649552;212;31526;-70
2021/09/29 04:25:32;;;;;;;2.87;1.90;;;13.40;1.40;;;14.45;100.00;95644.86;648412;212;31554;-70
2021/09/29 04:28:13;;;;;;;1.92;1.37;;;13.40;1.40;;;14.51;100.00;95645.98;645443;216;31564;-72
2021/09/29 04:30:55;;;;;;;3.28;2.40;;;13.40;1.40;;;14.53;100.00;95647.62;647691;212;31526;-71
2021/09/29 04:35:57;;;;;;;1.75;1.50;;;13.40;1.40;;;14.43;100.00;95649.74;645117;216;31696;-72
2021/09/29 04:38:38;;;;;;;2.67;2.47;;;13.30;1.40;;;14.36;100.00;95655.28;622487;222;42556;-71
2021/09/29 04:41:23;;;;;;;2.60;2.33;;;13.30;1.40;;;14.30;100.00;95659.31;642473;212;31876;-70
2021/09/29 04:44:05;;;;;;;1.70;1.55;;;13.30;1.40;;;14.28;100.00;95660.48;648194;216;31547;-71
2021/09/29 04:46:47;;;;;;;3.00;2.55;;;13.30;1.40;;;14.25;100.00;95658.80;648740;212;31599;-71
2021/09/29 04:49:29;;;;;;;2.47;2.12;;;13.30;1.40;;;14.30;100.00;95655.95;649282;212;31789;-71
2021/09/29 04:52:10;;;;;;;2.20;2.10;;;13.30;1.40;;;14.35;100.00;95660.50;646237;216;31596;-71
2021/09/29 04:54:57;;;;;;;2.03;1.37;;;13.30;1.40;;;14.40;100.00;95661.30;648560;216;31591;-71
2021/09/29 04:57:38;;;;;;;2.33;2.12;;;13.40;1.40;;;14.38;100.00;95658.43;645617;212;31810;-71
2021/09/29 05:00:23;;;;;;;1.73;1.62;;;13.40;1.40;;;14.34;100.00;95658.81;645037;212;31537;-72
2021/09/29 05:03:05;;;;;;;1.62;1.35;;;13.40;1.40;;;14.35;100.00;95662.79;646777;212;31518;-71
2021/09/29 05:05:46;;;;;;;1.73;1.48;;;13.40;1.40;;;14.32;100.00;95664.66;645825;216;31496;-71
2021/09/29 05:08:28;;;;;;;2.15;1.95;;;13.50;1.40;;;14.35;100.00;95666.72;647478;212;31512;-71
2021/09/29 05:11:25;;;;;;;1.90;1.10;;;13.50;1.40;;;14.36;100.00;95667.86;644529;212;31953;-71
2021/09/29 05:14:07;;;;;;;1.45;1.17;;;13.50;1.40;;;14.38;100.00;95670.70;649257;216;31535;-70
2021/09/29 05:16:49;;;;;;;1.42;1.33;;;13.50;1.40;;;14.38;100.00;95665.03;645408;212;32176;-71
2021/09/29 05:19:30;;;;;;;1.80;1.70;;;13.50;1.40;;;14.36;100.00;95674.80;619598;222;42269;-71
2021/09/29 05:22:12;;;;;;;2.22;1.62;;;13.40;1.40;;;14.30;100.00;95667.87;645809;216;32310;-70
2021/09/29 05:24:54;;;;;;;1.77;1.20;;;13.40;1.40;;;14.27;100.00;95669.98;645586;212;31952;-72
2021/09/29 05:27:35;;;;;;;1.90;1.50;;;13.40;1.40;;;14.24;100.00;95675.01;618111;222;42546;-72
2021/09/29 05:30:17;;;;;;;1.30;1.17;;;13.40;1.40;;;14.18;100.00;95677.10;647770;212;31514;-71
2021/09/29 05:33:02;;;;;;;2.47;2.10;;;13.30;1.40;;;14.18;100.00;95675.70;647376;216;31547;-71
2021/09/29 05:35:52;;;;;;;1.67;1.10;;;13.30;1.40;;;14.12;100.00;95666.63;648191;212;42266;-71
2021/09/29 05:38:37;;;;;;;1.42;1.33;;;13.30;1.40;;;14.13;100.00;95671.43;617371;226;32529;-73
2021/09/29 05:43:53;;;;;;;0.70;0.60;;;13.30;1.40;;;14.18;100.00;95678.80;646758;212;31477;-71
2021/09/29 05:46:38;;;;;;;1.27;1.17;;;13.40;1.40;;;14.18;100.00;95681.59;617352;222;43179;-71
2021/09/29 05:49:20;;;;;;;1.20;1.00;;;13.40;1.40;;;14.16;100.00;95686.43;646739;212;31766;-71
2021/09/29 05:52:01;;;;;;;0.90;0.90;;;13.30;1.40;;;14.18;100.00;95687.57;648709;212;42132;-71
2021/09/29 05:57:17;;;;;;;1.02;0.82;;;13.40;1.40;;;14.10;100.00;95696.73;650137;216;31531;-70
2021/09/29 05:59:59;;;;;;;1.65;1.55;;;13.30;1.40;;;14.06;100.00;95696.53;649525;216;31479;-72
2021/09/29 06:02:41;;;;;;;1.12;0.85;;;13.20;1.40;;;14.05;100.00;95702.56;646073;216;31561;-72
2021/09/29 06:05:22;;;;;;;0.80;0.60;;;13.30;1.40;;;14.06;100.00;95706.70;646892;212;42515;-72
2021/09/29 06:08:07;;;;;;;1.80;1.70;;;13.40;1.40;;;14.07;100.00;95707.09;647004;216;42182;-72
2021/09/29 06:10:49;;;;;;;0.90;0.90;;;13.40;1.40;;;14.04;100.00;95718.27;647301;215;42144;-72
2021/09/29 06:13:36;;;;;;;0.88;0.68;;;13.30;1.40;;;14.04;100.00;95717.45;649700;212;42140;-71
2021/09/29 06:16:22;;;;;;;1.30;1.20;;;13.30;1.40;;;14.07;100.00;95722.09;647869;212;42153;-71
2021/09/29 06:19:04;;;;;;;0.70;0.50;;;13.30;1.40;;;14.05;100.00;95721.05;648660;212;31626;-72
2021/09/29 06:21:45;;;;;;;0.95;0.85;;;13.30;1.40;;;14.11;100.00;95720.16;647432;212;42147;-69
2021/09/29 06:24:27;;;;;;;0.80;0.50;;;13.30;1.40;;;14.15;100.00;95721.00;645275;212;31642;-71
2021/09/29 06:27:12;;;;;;;1.35;0.60;;;13.30;1.40;;;14.14;100.00;95721.95;646068;216;31483;-71
2021/09/29 06:29:59;;;;;;;0.80;0.80;;;13.40;1.40;;;14.18;100.00;95719.76;645409;216;42134;-72
2021/09/29 06:35:52;;;;;;;1.20;1.10;;;13.40;1.40;;;14.15;100.00;95725.67;645338;216;31570;-69
2021/09/29 06:38:36;;;;;;;0.88;0.68;;;13.30;1.40;;;14.16;100.00;95732.64;646853;216;42303;-71
2021/09/29 06:41:18;;;;;;;0.70;0.68;;;13.30;1.40;;;14.18;100.00;95740.58;612324;222;32010;-71
2021/09/29 06:44:00;;;;;;;0.80;0.60;;;13.40;1.40;;;14.22;100.00;95739.16;646828;212;32018;-70
2021/09/29 06:46:51;;;;;;;0.80;0.80;;;13.40;1.40;;;14.21;100.00;95739.67;645104;212;42676;-72
2021/09/29 06:49:39;;;;;;;0.90;0.90;;;13.40;1.40;;;14.23;100.00;95737.42;616253;225;31868;-71
2021/09/29 06:52:20;;;;;;;0.98;0.60;;;13.40;1.40;;;14.32;100.00;95749.39;646563;216;31479;-71
2021/09/29 06:57:38;;;;;;;0.85;0.73;;;13.50;1.40;;;14.38;100.00;95759.09;648254;212;31469;-72
2021/09/29 07:00:18;;;;;;;1.00;0.73;;;13.60;1.40;;;14.43;100.00;95768.48;647437;212;31480;-71
2021/09/29 07:03:00;;;;;;;0.62;0.62;;;13.60;1.40;;;14.53;100.00;95770.07;645985;216;31466;-71
2021/09/29 07:05:42;;;;;;;0.70;0.60;;;13.70;1.40;;;14.51;100.00;95767.71;650336;216;31627;-71
2021/09/29 07:08:25;;;;;;;0.70;0.70;;;13.80;1.40;;;14.53;100.00;95769.79;645608;216;31481;-71
2021/09/29 07:11:09;;;;;;;2.28;0.77;;;13.80;1.40;;;14.60;100.00;95772.14;646464;212;32051;-70
2021/09/29 07:13:51;;;;;;;0.85;0.68;;;13.70;1.40;;;14.64;100.00;95774.83;649266;212;31558;-70
2021/09/29 07:16:35;;;;;;;0.80;0.68;;;13.70;1.40;;;14.71;100.00;95777.81;618047;226;31869;-70
2021/09/29 07:19:17;;;;;;;1.08;0.80;;;13.80;1.40;;;14.72;100.00;95775.14;647796;216;31465;-70
2021/09/29 07:22:05;;;;;;;2.40;0.50;;;13.80;1.40;;;14.69;100.00;95783.43;617708;226;43184;-72
2021/09/29 07:24:53;;;;;;;0.80;0.40;;;13.80;1.40;;;14.68;100.00;95792.06;648698;216;31661;-70
2021/09/29 07:27:36;;;;;;;0.40;0.40;;;13.80;1.40;;;14.68;100.00;95793.25;646226;212;31538;-73
2021/09/29 07:30:24;;;;;;;0.70;0.50;;;13.90;1.40;;;14.68;100.00;95800.81;646984;216;31470;-70
2021/09/29 07:35:51;;;;;;;1.40;0.40;;;14.00;1.40;;;14.84;97.46;95799.47;648594;216;31647;-71
2021/09/29 07:38:33;;;;;;;0.70;0.50;;;14.00;1.40;;;14.93;96.97;95802.83;619124;222;31904;-71
2021/09/29 07:41:15;;;;;;;0.50;0.50;;;14.10;1.40;;;14.97;95.24;95812.67;644709;212;31842;-71
2021/09/29 07:43:56;;;;;;;0.40;0.40;;;14.10;1.40;;;14.89;92.94;95817.98;645741;216;31553;-70
2021/09/29 07:46:38;;;;;;;0.90;0.40;;;14.20;1.40;;;15.16;94.58;95815.13;649023;212;31617;-70
2021/09/29 07:49:22;;;;;;;0.70;0.50;;;14.40;1.40;;;15.23;92.27;95817.30;650282;212;31547;-72
2021/09/29 07:52:06;;;;;;;1.23;0.62;;;14.40;1.40;;;15.41;92.58;95821.58;647932;216;31500;-71
2021/09/29 07:54:48;;;;;;;0.50;0.50;;;14.50;1.40;;;15.31;92.51;95825.36;618450;222;32431;-70
2021/09/29 07:57:29;;;;;;;0.40;0.30;;;14.40;1.40;;;15.19;89.99;95825.30;644707;212;32039;-71
2021/09/29 08:00:12;;;;;;;0.62;0.47;;;14.30;1.40;;;15.09;88.23;95832.96;647784;216;31473;-72
2021/09/29 08:02:54;;;;;;;1.12;0.40;;;14.20;1.40;;;14.98;91.22;95831.81;646931;216;31490;-71
2021/09/29 08:05:38;;;;;;;0.40;0.30;;;14.10;1.40;;;14.99;91.37;95837.97;647462;213;32029;-71
2021/09/29 08:08:20;;;;;;;0.60;0.43;;;14.10;1.40;;;14.96;91.75;95838.11;647275;212;31551;-70
2021/09/29 08:11:02;;;;;;;0.40;0.40;;;14.10;1.40;;;14.88;89.08;95836.91;648201;212;31626;-70
2021/09/29 08:13:46;;;;;;;0.73;0.37;;;14.00;1.40;;;14.91;89.34;95836.79;645721;216;31441;-71
2021/09/29 08:16:28;;;;;;;0.50;0.30;;;14.10;1.40;;;14.87;90.13;95841.54;646558;216;31472;-71
2021/09/29 08:19:10;;;;;;;0.50;0.30;;;14.10;1.40;;;15.01;90.12;95835.77;647463;216;31538;-70
2021/09/29 08:21:51;;;;;;;0.60;0.40;;;14.30;1.40;;;15.30;87.57;95849.20;645182;212;31472;-71
2021/09/29 08:24:45;;;;;;;0.70;0.30;;;14.50;1.40;;;15.58;85.71;95849.80;646148;216;31480;-70
2021/09/29 08:27:30;;;;;;;0.70;0.40;;;14.80;1.40;;;15.78;82.86;95850.05;618934;226;32299;-71
2021/09/29 08:30:18;;;;;;;0.90;0.40;;;15.00;1.40;;;16.06;80.35;95848.43;646089;212;31492;-71
2021/09/29 08:33:06;;;;;;;0.43;0.37;;;15.40;1.40;;;16.29;78.33;95848.97;647688;212;31459;-71
2021/09/29 08:36:02;;;;;;;1.12;0.80;;;15.60;1.40;;;16.50;77.87;95848.09;647118;216;31522;-73
2021/09/29 08:38:42;;;;;;;0.50;0.40;;;15.60;1.40;;;16.31;75.89;95852.53;609252;227;32048;-72
2021/09/29 08:41:54;;;;;;;0.70;0.68;;;15.30;1.40;;;16.22;78.26;95860.43;641347;212;31943;-71
2021/09/29 08:44:31;;;;;;;0.50;0.40;;;15.40;1.40;;;16.32;76.29;95855.79;618933;226;31803;-71
2021/09/29 08:47:16;;;;;;;0.60;0.50;;;15.40;1.40;;;16.14;74.56;95858.41;648530;216;31594;-71
2021/09/29 08:52:42;;;;;;;2.40;0.40;;;15.60;1.40;;;16.75;74.08;95864.23;647037;216;31467;-71
2021/09/29 09:15:53;;;;;;;0.88;0.50;;;15.20;1.40;;;16.36;75.06;95868.85;645431;212;31893;-70
2021/09/29 09:21:06;;;;;;;2.17;0.50;;;15.70;1.40;;;16.86;71.63;95865.95;646637;216;31521;-70
2021/09/29 09:23:47;;;;;;;0.40;0.30;;;15.80;1.40;;;16.78;68.84;95866.17;646177;216;31478;-70
2021/09/29 09:26:29;;;;;;;0.50;0.40;;;15.60;1.40;;;16.64;68.85;95869.14;647670;212;31557;-71
2021/09/29 09:29:10;;;;;;;0.50;0.30;;;15.70;1.40;;;17.65;69.68;95862.94;645638;216;31566;-71
2021/09/29 09:32:07;;;;;;;0.60;0.30;;;17.30;1.40;;;19.70;60.81;95861.06;647114;216;31499;-72
2021/09/29 09:35:51;;;;;;;1.00;0.50;;;18.70;1.40;;;18.78;61.29;95858.93;645969;216;32032;-71
2021/09/29 09:38:35;;;;;;;2.12;0.50;;;17.40;1.40;;;17.58;67.20;95853.13;646637;215;32160;-71
2021/09/29 09:41:14;;;;;;;1.50;0.40;;;16.20;1.40;;;17.33;67.36;95860.81;642111;216;32353;-70
2021/09/29 09:43:55;;;;;;;0.50;0.50;;;16.20;1.40;;;17.55;63.64;95847.98;646737;216;42702;-71
2021/09/29 09:46:37;;;;;;;1.20;0.23;;;16.30;1.40;;;18.00;63.05;95849.11;617882;222;32768;-70
2021/09/29 09:49:19;;;;;;;0.60;0.30;;;16.90;1.40;;;17.69;61.10;95847.45;647092;212;32079;-71
2021/09/29 09:52:01;;;;;;;0.40;0.20;;;16.30;1.40;;;17.47;63.61;95841.66;648025;212;31820;-71
2021/09/29 09:54:42;;;;;;;0.68;0.37;;;16.40;1.40;;;17.75;64.86;95840.44;646487;212;31670;-71
2021/09/29 09:57:24;;;;;;;0.50;0.50;;;16.80;1.40;;;17.20;65.67;95842.30;648044;216;32112;-71
2021/09/29 10:00:07;;;;;;;2.17;0.40;;;16.30;1.40;;;17.58;67.54;95837.94;647148;216;31629;-71
2021/09/29 10:02:48;;;;;;;0.60;0.40;;;16.50;1.40;;;17.50;64.26;95836.30;645943;216;31608;-71
2021/09/29 10:05:30;;;;;;;1.27;0.60;;;16.60;1.40;;;17.75;64.25;95835.74;646959;216;31504;-71
2021/09/29 10:08:15;;;;;;;1.20;0.40;;;16.80;1.40;;;17.82;64.98;95832.82;646756;216;31555;-71
2021/09/29 10:11:03;;;;;;;0.50;0.45;;;17.00;1.40;;;17.98;64.88;95838.39;618238;226;31818;-71
2021/09/29 10:13:56;;;;;;;0.60;0.43;;;17.40;1.40;;;18.81;63.06;95834.09;645821;216;31480;-71
2021/09/29 10:27:39;;;;;;;0.93;0.57;;;22.80;1.40;;;21.63;52.01;95824.30;619351;226;31793;-70
2021/09/29 10:30:28;;;;;;;1.33;0.43;;;20.60;1.40;;;21.07;53.14;95826.11;645704;212;42119;-71
2021/09/29 10:36:08;;;;;;;0.80;0.50;;;18.90;1.40;;;19.86;54.89;95822.49;648089;212;34557;-71
2021/09/29 10:41:51;;;;;;;0.70;0.50;;;17.20;1.40;;;18.69;61.74;95830.16;638590;216;31636;-72
2021/09/29 10:44:29;;;;;;;0.70;0.50;;;16.90;1.40;;;19.03;60.58;95823.02;646009;216;31482;-72
2021/09/29 10:47:17;;;;;;;1.40;0.50;;;17.00;1.40;;;18.70;60.50;95830.86;645940;216;31656;-71
2021/09/29 10:53:00;;;;;;;0.80;0.50;;;17.90;1.40;;;18.66;60.75;95823.41;620186;226;31810;-71
2021/09/29 11:09:54;;;;;;;1.10;0.40;;;19.60;1.40;;;20.84;55.69;95809.85;646490;216;32151;-71
2021/09/29 11:29:46;;;;;;;0.75;0.70;;;23.70;1.40;;;23.27;50.60;95799.27;645653;216;31768;-72
2021/09/29 11:32:34;;;;;;;1.70;0.60;;;22.50;1.40;;;22.56;51.70;95798.60;647659;212;31728;-73
2021/09/29 11:36:02;;;;;;;1.43;0.50;;;21.80;1.40;;;21.37;53.46;95805.83;646197;216;31507;-72
2021/09/29 11:39:13;;;;;;;0.83;0.50;;;19.90;1.40;;;22.17;52.21;95801.82;647293;216;31674;-72
2021/09/29 12:10:11;;;;;;;1.00;0.60;;;22.20;1.40;;;23.24;51.71;95774.05;646016;216;31662;-71
2021/09/29 12:12:53;;;;;;;2.08;0.77;;;19.90;1.40;;;21.20;55.55;95776.13;619365;222;31842;-71
2021/09/29 12:15:49;;;;;;;0.60;0.50;;;18.80;1.40;;;20.26;58.45;95764.22;646880;216;31645;-71
2021/09/29 12:18:30;;;;;;;0.50;0.40;;;18.40;1.40;;;19.34;63.15;95773.84;646180;213;31799;-70
2021/09/29 12:21:14;;;;;;;2.50;0.70;;;18.10;1.40;;;19.06;62.11;95767.50;645352;214;31545;-70
2021/09/29 12:23:54;;;;;;;0.50;0.40;;;17.90;1.40;;;18.95;61.67;95774.39;646263;216;31481;-71
2021/09/29 12:26:42;;;;;;;0.40;0.30;;;17.80;1.40;;;18.74;62.47;95763.96;646445;216;31509;-71
2021/09/29 12:29:33;;;;;;;1.40;0.40;;;17.60;1.40;;;18.81;63.98;95771.86;632052;221;32176;-71
2021/09/29 12:32:28;;;;;;;0.50;0.43;;;17.70;1.40;;;18.97;64.09;95765.98;648643;216;31493;-70
2021/09/29 12:35:52;;;;;;;1.30;0.70;;;17.70;1.40;;;18.70;65.19;95766.45;647221;216;31724;-71
2021/09/29 12:38:34;;;;;;;0.57;0.40;;;17.60;1.40;;;18.80;65.98;95773.87;647731;212;31459;-71
2021/09/29 12:41:16;;;;;;;0.88;0.47;;;17.60;1.40;;;18.57;66.39;95774.53;641772;212;32252;-72
2021/09/29 12:44:03;;;;;;;0.75;0.45;;;17.50;1.40;;;18.41;66.88;95770.96;646407;216;31482;-71
2021/09/29 12:46:49;;;;;;;0.80;0.40;;;17.40;1.40;;;18.42;66.60;95768.41;646858;216;31606;-71
2021/09/29 12:49:27;;;;;;;0.70;0.50;;;17.40;1.40;;;18.39;65.65;95773.77;646624;212;31471;-71
2021/09/29 12:52:11;;;;;;;0.80;0.40;;;17.30;1.40;;;18.19;66.53;95777.38;645580;216;42914;-71
2021/09/29 12:54:52;;;;;;;0.73;0.50;;;17.00;1.40;;;18.01;67.14;95767.70;646578;212;31547;-71
2021/09/29 12:57:35;;;;;;;1.30;0.60;;;16.90;1.40;;;17.82;69.90;95770.44;647259;216;31500;-72
2021/09/29 13:00:23;;;;;;;0.60;0.40;;;16.90;1.40;;;18.12;70.46;95769.22;641294;217;31545;-71
2021/09/29 13:03:05;;;;;;;1.40;0.50;;;17.00;1.40;;;18.50;70.51;95767.52;647933;212;32726;-71
2021/09/29 13:05:48;;;;;;;0.50;0.40;;;17.30;1.40;;;18.27;68.50;95768.95;647559;212;31465;-71
2021/09/29 13:08:28;;;;;;;1.20;1.10;;;17.20;1.40;;;18.48;71.18;95764.17;645102;212;31481;-71
2021/09/29 13:11:10;;;;;;;0.60;0.50;;;17.20;1.40;;;18.60;71.60;95766.78;646613;212;31467;-71
2021/09/29 13:13:58;;;;;;;0.70;0.50;;;17.40;1.40;;;18.96;68.66;95767.47;646355;216;31506;-71
2021/09/29 13:16:45;;;;;;;0.90;0.57;;;17.60;1.40;;;19.00;68.76;95771.84;646851;216;31576;-72
2021/09/29 13:19:32;;;;;;;0.80;0.60;;;17.70;1.40;;;18.90;67.79;95773.88;646210;212;34879;-70
2021/09/29 13:22:18;;;;;;;0.45;0.30;;;17.60;1.40;;;19.02;68.16;95781.38;646315;216;31655;-71
2021/09/29 13:25:14;;;;;;;0.90;0.57;;;17.70;1.40;;;19.08;70.63;95776.25;645465;212;31477;-71
2021/09/29 13:38:56;;;;;;;0.90;0.50;;;17.70;1.40;;;18.72;69.34;95782.73;646900;212;33476;-71
2021/09/29 13:41:37;;;;;;;0.68;0.50;;;17.50;1.40;;;18.66;71.97;95781.27;640058;216;38666;-71
2021/09/29 13:44:19;;;;;;;1.00;0.50;;;17.50;1.40;;;18.57;71.12;95780.41;647186;212;31840;-72
2021/09/29 13:47:01;;;;;;;0.70;0.60;;;17.50;1.40;;;18.72;70.27;95780.59;645158;216;32343;-72
2021/09/29 13:49:42;;;;;;;0.70;0.50;;;17.70;1.40;;;18.72;70.12;95779.41;647237;216;31557;-71
2021/09/29 13:52:25;;;;;;;1.10;0.60;;;17.80;1.40;;;19.02;71.07;95773.05;642327;217;32214;-71
2021/09/29 13:55:10;;;;;;;0.40;0.40;;;18.00;1.40;;;19.48;68.74;95775.45;647902;216;32039;-71